Detall de PIREP

Printer-friendly versionPDF version

[2015/08/10 07:42:00]
Flight IATA:CT2101
Pilot Number:030
Company ICAO:CAT
Aircraft Type:B738/F
PAX:117
Departing Airport: LEAS
Destination Airport: LEVC
Alternate Airport:LEPA
Online: VATSIM
Route:XONDA/N380F220 R107 ZMR/N430F340 UL155 NVS UM871 ABOSI
Flight Level:F340
No Slew and time accel
No pause
Crash detect
Detect pilot in Cockpit between each 30 and 45 minutes
07:42 Zero fuel Weight: 111400 Lbs, Fuel Weight: 12107 Lbs
07:42 VATSIM:LEAS 100730Z 25004KT 220V280 CAVOK 17/16 Q1017 NOSIG
07:42 VATSIM:LEVC 100730Z 33005KT 290V350 9999 FEW028 25/19 Q1016 NOSIG
07:45 Parking Brakes off
07:49 Take-off
07:49 Take off Weight: 121087 Lbs
07:49 Wind: 077º @ 005 Knots Heading: 288º
07:49 POS N43º 33´ 54´´ W006º 02´ 26´´
07:49 Flaps:4 at 164 Knots
07:49 Gear Up: 168 Knots
07:51 Flaps:2 at 197 Knots
07:51 Flaps:1 at 206 Knots
07:51 Flaps:0 at 208 Knots
08:04 Wind:265º@034 Knots Heading: 176º Ground Speed: 476 Knots Altitude 31781 ft
08:05 TOC
08:05 Fuel Weight: 8823 Lb
08:19 Wind:274º@028 Knots Heading: 140º Ground Speed: 489 Knots Altitude 34209 ft
08:34 Wind:274º@038 Knots Heading: 108º Ground Speed: 507 Knots Altitude 34166 ft
08:35 TOD
08:35 Fuel Weight: 5654 Lb
08:47 Flaps:1 at 220 Knots
08:47 Flaps:2 at 220 Knots
08:47 Flaps:3 at 215 Knots
08:49 Wind:000º@001 Knots Heading: 053º Ground Speed: 195 Knots Altitude 3585 ft
08:51 Flaps:4 at 184 Knots
08:51 Flaps:5 at 184 Knots
08:51 Flaps:4 at 184 Knots
08:51 Flaps:5 at 183 Knots
08:51 Gear Down: 183 Knots
08:51 Flaps:6 at 183 Knots
08:52 Flaps:7 at 166 Knots
08:53 Flaps:8 at 155 Knots
08:54 TouchDown:Rate -257 ft/min Speed: 130 Knots
08:54 VATSIM:LEVC 100830Z VRB01KT 9999 FEW028 28/20 Q1015 NOSIG
08:54 Land
08:54 Wind:003º@001 Knots
08:54 Heading: 294º
08:54 Flight Duration: 01:05
08:54 Landing Weight: 113282 Lbs
08:54 POS N39º 29´ 24´´ W000º 29´ 00´´
08:58 Parking brakes on
08:58 Block to Block Duration: 01:13
08:58 Final Fuel: 3699 Lbls
08:58 Spent Fuel: 8408 Lbls
08:58 Flight Length: 445 NM
08:58 TOD Land Length: 103 NM

Exportar CSV

Powered by Drupal - Modified by Danger4k